sensor_id;sensor_type;location;lat;lon;timestamp;P1;durP1;ratioP1;P2;durP2;ratioP2
12721;SDS011;6425;50.316;8.114;2023-04-01T00:00:00;2;;;0.8;;
12721;SDS011;6425;50.316;8.114;2023-04-01T00:03:00;2.7;;;1;;
12721;SDS011;6425;50.316;8.114;2023-04-01T00:06:00;2.7;;;1;;
12721;SDS011;6425;50.316;8.114;2023-04-01T00:09:00;3.5;;;0.9;;
12721;SDS011;6425;50.316;8.114;2023-04-01T00:12:00;4.3;;;0.6;;
12721;SDS011;6425;50.316;8.114;2023-04-01T00:15:00;4.3;;;0.6;;
12721;SDS011;6425;50.316;8.114;2023-04-01T00:18:00;3.6;;;1;;
12721;SDS011;6425;50.316;8.114;2023-04-01T00:21:00;3.6;;;1;;
12721;SDS011;6425;50.316;8.114;2023-04-01T00:24:00;2.3;;;0.9;;
12721;SDS011;6425;50.316;8.114;2023-04-01T00:27:00;1.3;;;0.8;;
12721;SDS011;6425;50.316;8.114;2023-04-01T00:30:00;1.3;;;0.8;;
12721;SDS011;6425;50.316;8.114;2023-04-01T00:33:00;2.2;;;1.1;;
12721;SDS011;6425;50.316;8.114;2023-04-01T00:36:05;2.2;;;1.1;;
12721;SDS011;6425;50.316;8.114;2023-04-01T00:39:00;1.5;;;0.7;;
12721;SDS011;6425;50.316;8.114;2023-04-01T00:42:00;1.6;;;0.8;;
12721;SDS011;6425;50.316;8.114;2023-04-01T00:45:21;1.6;;;0.8;;
12721;SDS011;6425;50.316;8.114;2023-04-01T00:48:01;2.3;;;1;;
12721;SDS011;6425;50.316;8.114;2023-04-01T00:51:01;2.3;;;1;;
12721;SDS011;6425;50.316;8.114;2023-04-01T00:54:00;1.7;;;0.7;;
12721;SDS011;6425;50.316;8.114;2023-04-01T00:57:00;2.2;;;0.6;;
12721;SDS011;6425;50.316;8.114;2023-04-01T01:00:00;2.2;;;0.6;;
12721;SDS011;6425;50.316;8.114;2023-04-01T01:03:00;2.8;;;0.7;;
12721;SDS011;6425;50.316;8.114;2023-04-01T01:06:08;2.8;;;0.7;;
12721;SDS011;6425;50.316;8.114;2023-04-01T01:09:03;2.1;;;0.7;;
12721;SDS011;6425;50.316;8.114;2023-04-01T01:12:01;3.2;;;0.7;;
12721;SDS011;6425;50.316;8.114;2023-04-01T01:15:02;3.2;;;0.7;;
12721;SDS011;6425;50.316;8.114;2023-04-01T01:18:01;1.1;;;0.3;;
12721;SDS011;6425;50.316;8.114;2023-04-01T01:24:36;3;;;0.6;;
12721;SDS011;6425;50.316;8.114;2023-04-01T01:27:00;2;;;0.5;;
12721;SDS011;6425;50.316;8.114;2023-04-01T01:30:03;2;;;0.5;;
12721;SDS011;6425;50.316;8.114;2023-04-01T01:33:18;2.5;;;0.6;;
12721;SDS011;6425;50.316;8.114;2023-04-01T01:36:00;2.5;;;0.6;;
12721;SDS011;6425;50.316;8.114;2023-04-01T01:39:00;0.6;;;0.4;;
12721;SDS011;6425;50.316;8.114;2023-04-01T01:42:00;1.8;;;0.6;;
12721;SDS011;6425;50.316;8.114;2023-04-01T01:45:00;1.8;;;0.6;;
12721;SDS011;6425;50.316;8.114;2023-04-01T01:48:00;1.4;;;0.5;;
12721;SDS011;6425;50.316;8.114;2023-04-01T01:51:00;1.4;;;0.5;;
12721;SDS011;6425;50.316;8.114;2023-04-01T01:54:00;1.8;;;1.2;;
12721;SDS011;6425;50.316;8.114;2023-04-01T01:57:01;2.2;;;0.8;;
12721;SDS011;6425;50.316;8.114;2023-04-01T02:00:00;2.2;;;0.8;;
12721;SDS011;6425;50.316;8.114;2023-04-01T02:03:00;3.8;;;0.7;;
12721;SDS011;6425;50.316;8.114;2023-04-01T02:06:00;3.8;;;0.7;;
12721;SDS011;6425;50.316;8.114;2023-04-01T02:09:00;1.9;;;1;;
12721;SDS011;6425;50.316;8.114;2023-04-01T02:12:00;2.1;;;0.7;;
12721;SDS011;6425;50.316;8.114;2023-04-01T02:15:01;2.1;;;0.7;;
12721;SDS011;6425;50.316;8.114;2023-04-01T02:18:00;3;;;0.4;;
12721;SDS011;6425;50.316;8.114;2023-04-01T02:21:00;3;;;0.4;;
12721;SDS011;6425;50.316;8.114;2023-04-01T02:24:00;1.7;;;0.7;;
12721;SDS011;6425;50.316;8.114;2023-04-01T02:27:00;2.9;;;1;;
12721;SDS011;6425;50.316;8.114;2023-04-01T02:30:00;2.9;;;1;;
12721;SDS011;6425;50.316;8.114;2023-04-01T02:33:00;1.9;;;0.6;;
12721;SDS011;6425;50.316;8.114;2023-04-01T02:36:00;1.2;;;0.5;;
12721;SDS011;6425;50.316;8.114;2023-04-01T02:39:00;1.2;;;0.5;;
12721;SDS011;6425;50.316;8.114;2023-04-01T02:42:00;0.5;;;0.5;;
12721;SDS011;6425;50.316;8.114;2023-04-01T02:45:00;0.5;;;0.5;;
12721;SDS011;6425;50.316;8.114;2023-04-01T02:48:00;1;;;0.5;;
12721;SDS011;6425;50.316;8.114;2023-04-01T02:51:00;1.6;;;0.8;;
12721;SDS011;6425;50.316;8.114;2023-04-01T02:54:00;1.6;;;0.8;;
12721;SDS011;6425;50.316;8.114;2023-04-01T02:57:00;3.4;;;1.1;;
12721;SDS011;6425;50.316;8.114;2023-04-01T03:00:00;3.4;;;1.1;;
12721;SDS011;6425;50.316;8.114;2023-04-01T03:03:00;2.9;;;0.9;;
12721;SDS011;6425;50.316;8.114;2023-04-01T03:06:04;1.6;;;0.7;;
12721;SDS011;6425;50.316;8.114;2023-04-01T03:09:00;1.6;;;0.7;;
12721;SDS011;6425;50.316;8.114;2023-04-01T03:12:00;2.1;;;0.7;;
12721;SDS011;6425;50.316;8.114;2023-04-01T03:15:00;2.1;;;0.7;;
12721;SDS011;6425;50.316;8.114;2023-04-01T03:18:00;1.8;;;0.8;;
12721;SDS011;6425;50.316;8.114;2023-04-01T03:21:11;3.5;;;1;;
12721;SDS011;6425;50.316;8.114;2023-04-01T03:24:00;3.5;;;1;;
12721;SDS011;6425;50.316;8.114;2023-04-01T03:27:00;1.3;;;0.7;;
12721;SDS011;6425;50.316;8.114;2023-04-01T03:30:00;1.3;;;0.7;;
12721;SDS011;6425;50.316;8.114;2023-04-01T03:33:00;2.7;;;0.5;;
12721;SDS011;6425;50.316;8.114;2023-04-01T03:36:00;2;;;0.9;;
12721;SDS011;6425;50.316;8.114;2023-04-01T03:39:00;2;;;0.9;;
12721;SDS011;6425;50.316;8.114;2023-04-01T03:42:00;2.6;;;0.7;;
12721;SDS011;6425;50.316;8.114;2023-04-01T03:45:00;2.6;;;0.7;;
12721;SDS011;6425;50.316;8.114;2023-04-01T03:48:00;2;;;0.9;;
12721;SDS011;6425;50.316;8.114;2023-04-01T03:51:00;1.2;;;0.7;;
12721;SDS011;6425;50.316;8.114;2023-04-01T03:54:00;1.2;;;0.7;;
12721;SDS011;6425;50.316;8.114;2023-04-01T03:57:00;2.4;;;0.6;;
12721;SDS011;6425;50.316;8.114;2023-04-01T04:00:00;2.4;;;0.6;;
12721;SDS011;6425;50.316;8.114;2023-04-01T04:03:00;3;;;0.7;;
12721;SDS011;6425;50.316;8.114;2023-04-01T04:06:00;2.9;;;0.6;;
12721;SDS011;6425;50.316;8.114;2023-04-01T04:09:00;2.9;;;0.6;;
12721;SDS011;6425;50.316;8.114;2023-04-01T04:12:00;2.4;;;0.4;;
12721;SDS011;6425;50.316;8.114;2023-04-01T04:15:00;2.4;;;0.4;;
12721;SDS011;6425;50.316;8.114;2023-04-01T04:18:00;2.8;;;0.5;;
12721;SDS011;6425;50.316;8.114;2023-04-01T04:21:00;1.7;;;0.3;;
12721;SDS011;6425;50.316;8.114;2023-04-01T04:24:00;1.7;;;0.3;;
12721;SDS011;6425;50.316;8.114;2023-04-01T04:27:00;2.4;;;0.6;;
12721;SDS011;6425;50.316;8.114;2023-04-01T04:30:00;2.4;;;0.6;;
12721;SDS011;6425;50.316;8.114;2023-04-01T04:33:00;0.5;;;0.2;;
12721;SDS011;6425;50.316;8.114;2023-04-01T04:36:00;1.2;;;0.3;;
12721;SDS011;6425;50.316;8.114;2023-04-01T04:39:00;1.2;;;0.3;;
12721;SDS011;6425;50.316;8.114;2023-04-01T04:42:00;1.3;;;0.2;;
12721;SDS011;6425;50.316;8.114;2023-04-01T04:45:00;1.3;;;0.2;;
12721;SDS011;6425;50.316;8.114;2023-04-01T04:48:00;1.1;;;0.2;;
12721;SDS011;6425;50.316;8.114;2023-04-01T04:51:00;2.9;;;0.3;;
12721;SDS011;6425;50.316;8.114;2023-04-01T04:54:00;2.9;;;0.3;;
12721;SDS011;6425;50.316;8.114;2023-04-01T04:57:00;1.5;;;0.2;;
12721;SDS011;6425;50.316;8.114;2023-04-01T05:00:00;1.5;;;0.2;;
12721;SDS011;6425;50.316;8.114;2023-04-01T05:03:00;1.1;;;0.3;;
12721;SDS011;6425;50.316;8.114;2023-04-01T05:06:00;0.4;;;0.3;;
12721;SDS011;6425;50.316;8.114;2023-04-01T05:09:00;0.4;;;0.3;;
12721;SDS011;6425;50.316;8.114;2023-04-01T05:12:00;1.3;;;0.3;;
12721;SDS011;6425;50.316;8.114;2023-04-01T05:15:00;1.3;;;0.3;;
12721;SDS011;6425;50.316;8.114;2023-04-01T05:18:00;0.8;;;0.2;;
12721;SDS011;6425;50.316;8.114;2023-04-01T05:21:00;3.5;;;0.4;;
12721;SDS011;6425;50.316;8.114;2023-04-01T05:24:00;3.5;;;0.4;;
12721;SDS011;6425;50.316;8.114;2023-04-01T05:27:00;0.6;;;0.3;;
12721;SDS011;6425;50.316;8.114;2023-04-01T05:30:00;0.6;;;0.3;;
12721;SDS011;6425;50.316;8.114;2023-04-01T05:33:00;1.9;;;0.3;;
12721;SDS011;6425;50.316;8.114;2023-04-01T05:36:05;0.7;;;0.4;;
12721;SDS011;6425;50.316;8.114;2023-04-01T05:39:00;0.7;;;0.4;;
12721;SDS011;6425;50.316;8.114;2023-04-01T05:42:00;1.4;;;0.3;;
12721;SDS011;6425;50.316;8.114;2023-04-01T05:45:00;1.4;;;0.3;;
12721;SDS011;6425;50.316;8.114;2023-04-01T05:48:00;0.4;;;0.2;;
12721;SDS011;6425;50.316;8.114;2023-04-01T05:51:00;1.6;;;0.5;;
12721;SDS011;6425;50.316;8.114;2023-04-01T05:54:00;1.6;;;0.5;;
12721;SDS011;6425;50.316;8.114;2023-04-01T05:57:00;0.7;;;0.2;;
12721;SDS011;6425;50.316;8.114;2023-04-01T06:00:00;1;;;0.3;;
12721;SDS011;6425;50.316;8.114;2023-04-01T06:03:00;1;;;0.3;;
12721;SDS011;6425;50.316;8.114;2023-04-01T06:06:00;0.6;;;0.3;;
12721;SDS011;6425;50.316;8.114;2023-04-01T06:09:01;0.6;;;0.3;;
12721;SDS011;6425;50.316;8.114;2023-04-01T06:12:08;0.7;;;0.3;;
12721;SDS011;6425;50.316;8.114;2023-04-01T06:15:03;1.3;;;0.2;;
12721;SDS011;6425;50.316;8.114;2023-04-01T06:18:03;1.3;;;0.2;;
12721;SDS011;6425;50.316;8.114;2023-04-01T06:21:00;0.1;;;0.1;;
12721;SDS011;6425;50.316;8.114;2023-04-01T06:24:02;0.1;;;0.1;;
12721;SDS011;6425;50.316;8.114;2023-04-01T06:27:01;1;;;0.1;;
12721;SDS011;6425;50.316;8.114;2023-04-01T06:30:05;1.2;;;0.2;;
12721;SDS011;6425;50.316;8.114;2023-04-01T06:33:04;1.2;;;0.2;;
12721;SDS011;6425;50.316;8.114;2023-04-01T06:36:04;0.6;;;0.2;;
12721;SDS011;6425;50.316;8.114;2023-04-01T06:39:02;0.6;;;0.2;;
12721;SDS011;6425;50.316;8.114;2023-04-01T06:42:06;0.5;;;0.1;;
12721;SDS011;6425;50.316;8.114;2023-04-01T06:45:03;0.7;;;0.1;;
12721;SDS011;6425;50.316;8.114;2023-04-01T06:48:03;0.7;;;0.1;;
12721;SDS011;6425;50.316;8.114;2023-04-01T06:51:01;0.7;;;0.2;;
12721;SDS011;6425;50.316;8.114;2023-04-01T06:54:01;0.7;;;0.2;;
12721;SDS011;6425;50.316;8.114;2023-04-01T06:57:00;0.3;;;0.2;;
12721;SDS011;6425;50.316;8.114;2023-04-01T07:00:00;1.1;;;0.1;;
12721;SDS011;6425;50.316;8.114;2023-04-01T07:03:02;1.1;;;0.1;;
12721;SDS011;6425;50.316;8.114;2023-04-01T07:06:01;1.9;;;0.2;;
12721;SDS011;6425;50.316;8.114;2023-04-01T07:09:00;1.9;;;0.2;;
12721;SDS011;6425;50.316;8.114;2023-04-01T07:12:00;1.3;;;0.1;;
12721;SDS011;6425;50.316;8.114;2023-04-01T07:15:01;1.1;;;0.2;;
12721;SDS011;6425;50.316;8.114;2023-04-01T07:18:02;1.1;;;0.2;;
12721;SDS011;6425;50.316;8.114;2023-04-01T07:21:00;0.1;;;0.1;;
12721;SDS011;6425;50.316;8.114;2023-04-01T07:24:01;0.1;;;0.1;;
12721;SDS011;6425;50.316;8.114;2023-04-01T07:27:00;0.5;;;0.1;;
12721;SDS011;6425;50.316;8.114;2023-04-01T07:30:00;0.8;;;0.1;;
12721;SDS011;6425;50.316;8.114;2023-04-01T07:33:00;0.8;;;0.1;;
12721;SDS011;6425;50.316;8.114;2023-04-01T07:36:01;0.1;;;0.1;;
12721;SDS011;6425;50.316;8.114;2023-04-01T07:39:03;0.1;;;0.1;;
12721;SDS011;6425;50.316;8.114;2023-04-01T07:42:01;1.1;;;0.2;;
12721;SDS011;6425;50.316;8.114;2023-04-01T07:45:01;0.1;;;0.1;;
12721;SDS011;6425;50.316;8.114;2023-04-01T07:48:03;0.1;;;0.1;;
12721;SDS011;6425;50.316;8.114;2023-04-01T07:51:00;0.2;;;0.1;;
12721;SDS011;6425;50.316;8.114;2023-04-01T07:54:01;0.2;;;0.1;;
12721;SDS011;6425;50.316;8.114;2023-04-01T07:57:01;0.3;;;0.2;;
12721;SDS011;6425;50.316;8.114;2023-04-01T08:00:01;0.2;;;0.2;;
12721;SDS011;6425;50.316;8.114;2023-04-01T08:03:04;0.2;;;0.2;;
12721;SDS011;6425;50.316;8.114;2023-04-01T08:06:00;0.8;;;0.1;;
12721;SDS011;6425;50.316;8.114;2023-04-01T08:09:02;0.8;;;0.1;;
12721;SDS011;6425;50.316;8.114;2023-04-01T08:12:02;1.2;;;0.2;;
12721;SDS011;6425;50.316;8.114;2023-04-01T08:15:03;0.2;;;0.2;;
12721;SDS011;6425;50.316;8.114;2023-04-01T08:18:03;0.2;;;0.2;;
12721;SDS011;6425;50.316;8.114;2023-04-01T08:21:00;0.1;;;0.1;;
12721;SDS011;6425;50.316;8.114;2023-04-01T08:24:02;0.1;;;0.1;;
12721;SDS011;6425;50.316;8.114;2023-04-01T08:27:00;0.3;;;0.1;;
12721;SDS011;6425;50.316;8.114;2023-04-01T08:30:01;0.1;;;0.1;;
12721;SDS011;6425;50.316;8.114;2023-04-01T08:33:00;0.1;;;0.1;;
12721;SDS011;6425;50.316;8.114;2023-04-01T08:36:02;0.2;;;0.2;;
12721;SDS011;6425;50.316;8.114;2023-04-01T08:39:02;0.2;;;0.2;;
12721;SDS011;6425;50.316;8.114;2023-04-01T08:45:03;0.2;;;0.1;;
12721;SDS011;6425;50.316;8.114;2023-04-01T08:48:19;0.2;;;0.1;;
12721;SDS011;6425;50.316;8.114;2023-04-01T08:51:04;0.3;;;0.3;;
12721;SDS011;6425;50.316;8.114;2023-04-01T08:54:04;0.3;;;0.3;;
12721;SDS011;6425;50.316;8.114;2023-04-01T08:57:01;0.1;;;0.1;;
12721;SDS011;6425;50.316;8.114;2023-04-01T09:00:02;0.1;;;0.1;;
12721;SDS011;6425;50.316;8.114;2023-04-01T09:03:21;0.1;;;0.1;;
12721;SDS011;6425;50.316;8.114;2023-04-01T09:06:05;0.2;;;0.1;;
12721;SDS011;6425;50.316;8.114;2023-04-01T09:09:04;0.3;;;0.1;;
12721;SDS011;6425;50.316;8.114;2023-04-01T09:12:14;0.8;;;0.1;;
12721;SDS011;6425;50.316;8.114;2023-04-01T09:15:04;0.3;;;0.1;;
12721;SDS011;6425;50.316;8.114;2023-04-01T09:18:05;0.3;;;0.1;;
12721;SDS011;6425;50.316;8.114;2023-04-01T09:21:04;0.9;;;0.2;;
12721;SDS011;6425;50.316;8.114;2023-04-01T09:27:03;0.1;;;0.1;;
12721;SDS011;6425;50.316;8.114;2023-04-01T09:30:17;0.1;;;0.1;;
12721;SDS011;6425;50.316;8.114;2023-04-01T09:33:08;0.1;;;0.1;;
12721;SDS011;6425;50.316;8.114;2023-04-01T09:36:02;0.1;;;0.1;;
12721;SDS011;6425;50.316;8.114;2023-04-01T09:39:06;0.4;;;0.1;;
12721;SDS011;6425;50.316;8.114;2023-04-01T09:42:06;0.4;;;0.1;;
12721;SDS011;6425;50.316;8.114;2023-04-01T09:45:00;1.2;;;0.1;;
12721;SDS011;6425;50.316;8.114;2023-04-01T09:48:03;1.2;;;0.1;;
12721;SDS011;6425;50.316;8.114;2023-04-01T09:51:01;0.1;;;0.1;;
12721;SDS011;6425;50.316;8.114;2023-04-01T09:54:03;0.1;;;0.1;;
12721;SDS011;6425;50.316;8.114;2023-04-01T09:57:09;0.1;;;0.1;;
12721;SDS011;6425;50.316;8.114;2023-04-01T10:06:06;0.1;;;0.1;;
12721;SDS011;6425;50.316;8.114;2023-04-01T10:09:05;0.1;;;0.1;;
12721;SDS011;6425;50.316;8.114;2023-04-01T10:12:05;0.1;;;0.1;;
12721;SDS011;6425;50.316;8.114;2023-04-01T10:15:08;0.6;;;0.1;;
12721;SDS011;6425;50.316;8.114;2023-04-01T10:18:04;0.6;;;0.1;;
12721;SDS011;6425;50.316;8.114;2023-04-01T10:21:06;0.3;;;0.2;;
12721;SDS011;6425;50.316;8.114;2023-04-01T10:24:03;0.1;;;0.1;;
12721;SDS011;6425;50.316;8.114;2023-04-01T10:27:04;0.1;;;0.1;;
12721;SDS011;6425;50.316;8.114;2023-04-01T10:30:20;0.9;;;0.2;;
12721;SDS011;6425;50.316;8.114;2023-04-01T10:33:08;0.9;;;0.2;;
12721;SDS011;6425;50.316;8.114;2023-04-01T10:36:04;0.1;;;0.1;;
12721;SDS011;6425;50.316;8.114;2023-04-01T10:39:04;1.1;;;0.6;;
12721;SDS011;6425;50.316;8.114;2023-04-01T10:42:07;1.1;;;0.6;;
12721;SDS011;6425;50.316;8.114;2023-04-01T10:45:04;0.2;;;0.2;;
12721;SDS011;6425;50.316;8.114;2023-04-01T10:48:09;0.2;;;0.2;;
12721;SDS011;6425;50.316;8.114;2023-04-01T10:52:08;0.2;;;0.2;;
12721;SDS011;6425;50.316;8.114;2023-04-01T10:54:05;0.3;;;0.3;;
12721;SDS011;6425;50.316;8.114;2023-04-01T10:57:00;0.3;;;0.3;;
12721;SDS011;6425;50.316;8.114;2023-04-01T11:00:32;0.7;;;0.2;;
12721;SDS011;6425;50.316;8.114;2023-04-01T11:03:10;0.7;;;0.2;;
12721;SDS011;6425;50.316;8.114;2023-04-01T11:06:07;0.7;;;0.2;;
12721;SDS011;6425;50.316;8.114;2023-04-01T11:09:12;0.2;;;0.2;;
12721;SDS011;6425;50.316;8.114;2023-04-01T11:12:09;0.2;;;0.2;;
12721;SDS011;6425;50.316;8.114;2023-04-01T11:15:06;0.4;;;0.4;;
12721;SDS011;6425;50.316;8.114;2023-04-01T11:21:07;0.3;;;0.3;;
12721;SDS011;6425;50.316;8.114;2023-04-01T11:24:03;0.4;;;0.3;;
12721;SDS011;6425;50.316;8.114;2023-04-01T11:27:02;0.4;;;0.3;;
12721;SDS011;6425;50.316;8.114;2023-04-01T11:30:10;0.5;;;0.3;;
12721;SDS011;6425;50.316;8.114;2023-04-01T11:33:00;0.5;;;0.3;;
12721;SDS011;6425;50.316;8.114;2023-04-01T11:36:09;0.3;;;0.3;;
12721;SDS011;6425;50.316;8.114;2023-04-01T11:39:01;0.3;;;0.3;;
12721;SDS011;6425;50.316;8.114;2023-04-01T11:42:01;0.3;;;0.3;;
12721;SDS011;6425;50.316;8.114;2023-04-01T11:45:01;0.3;;;0.3;;
12721;SDS011;6425;50.316;8.114;2023-04-01T11:48:07;0.3;;;0.3;;
12721;SDS011;6425;50.316;8.114;2023-04-01T11:51:04;0.8;;;0.3;;
12721;SDS011;6425;50.316;8.114;2023-04-01T11:54:00;0.4;;;0.4;;
12721;SDS011;6425;50.316;8.114;2023-04-01T11:57:04;0.4;;;0.4;;
12721;SDS011;6425;50.316;8.114;2023-04-01T12:00:02;0.9;;;0.4;;
12721;SDS011;6425;50.316;8.114;2023-04-01T12:03:04;0.9;;;0.4;;
12721;SDS011;6425;50.316;8.114;2023-04-01T12:06:02;1.3;;;0.8;;
12721;SDS011;6425;50.316;8.114;2023-04-01T12:09:01;1.1;;;0.5;;
12721;SDS011;6425;50.316;8.114;2023-04-01T12:12:02;1.1;;;0.5;;
12721;SDS011;6425;50.316;8.114;2023-04-01T12:15:02;0.5;;;0.5;;
12721;SDS011;6425;50.316;8.114;2023-04-01T12:18:02;0.5;;;0.5;;
12721;SDS011;6425;50.316;8.114;2023-04-01T12:21:00;0.3;;;0.3;;
12721;SDS011;6425;50.316;8.114;2023-04-01T12:24:06;0.4;;;0.4;;
12721;SDS011;6425;50.316;8.114;2023-04-01T12:27:04;0.4;;;0.4;;
12721;SDS011;6425;50.316;8.114;2023-04-01T12:30:02;0.3;;;0.3;;
12721;SDS011;6425;50.316;8.114;2023-04-01T12:33:04;0.3;;;0.3;;
12721;SDS011;6425;50.316;8.114;2023-04-01T12:36:01;0.2;;;0.2;;
12721;SDS011;6425;50.316;8.114;2023-04-01T12:39:07;0.2;;;0.2;;
12721;SDS011;6425;50.316;8.114;2023-04-01T12:42:03;0.2;;;0.2;;
12721;SDS011;6425;50.316;8.114;2023-04-01T12:45:02;0.3;;;0.3;;
12721;SDS011;6425;50.316;8.114;2023-04-01T12:48:03;0.4;;;0.3;;
12721;SDS011;6425;50.316;8.114;2023-04-01T12:52:05;0.4;;;0.3;;
12721;SDS011;6425;50.316;8.114;2023-04-01T12:54:07;0.4;;;0.4;;
12721;SDS011;6425;50.316;8.114;2023-04-01T12:57:04;0.4;;;0.4;;
12721;SDS011;6425;50.316;8.114;2023-04-01T13:00:03;0.4;;;0.4;;
12721;SDS011;6425;50.316;8.114;2023-04-01T13:03:04;0.6;;;0.4;;
12721;SDS011;6425;50.316;8.114;2023-04-01T13:06:09;0.6;;;0.4;;
12721;SDS011;6425;50.316;8.114;2023-04-01T13:09:07;0.4;;;0.4;;
12721;SDS011;6425;50.316;8.114;2023-04-01T13:12:05;0.4;;;0.4;;
12721;SDS011;6425;50.316;8.114;2023-04-01T13:15:06;0.5;;;0.5;;
12721;SDS011;6425;50.316;8.114;2023-04-01T13:18:03;0.5;;;0.5;;
12721;SDS011;6425;50.316;8.114;2023-04-01T13:21:03;0.5;;;0.5;;
12721;SDS011;6425;50.316;8.114;2023-04-01T13:24:01;0.8;;;0.6;;
12721;SDS011;6425;50.316;8.114;2023-04-01T13:27:01;0.8;;;0.6;;
12721;SDS011;6425;50.316;8.114;2023-04-01T13:30:02;0.9;;;0.6;;
12721;SDS011;6425;50.316;8.114;2023-04-01T13:33:01;0.4;;;0.4;;
12721;SDS011;6425;50.316;8.114;2023-04-01T13:36:03;0.4;;;0.4;;
12721;SDS011;6425;50.316;8.114;2023-04-01T13:39:02;0.6;;;0.6;;
12721;SDS011;6425;50.316;8.114;2023-04-01T13:42:04;0.6;;;0.6;;
12721;SDS011;6425;50.316;8.114;2023-04-01T13:45:00;1.9;;;1.1;;
12721;SDS011;6425;50.316;8.114;2023-04-01T13:48:04;1.1;;;0.9;;
12721;SDS011;6425;50.316;8.114;2023-04-01T13:51:04;1.1;;;0.9;;
12721;SDS011;6425;50.316;8.114;2023-04-01T13:54:06;0.5;;;0.5;;
12721;SDS011;6425;50.316;8.114;2023-04-01T13:57:04;0.5;;;0.5;;
12721;SDS011;6425;50.316;8.114;2023-04-01T14:00:03;0.7;;;0.6;;
12721;SDS011;6425;50.316;8.114;2023-04-01T14:03:08;0.9;;;0.8;;
12721;SDS011;6425;50.316;8.114;2023-04-01T14:06:04;0.9;;;0.8;;
12721;SDS011;6425;50.316;8.114;2023-04-01T14:09:06;1.6;;;0.7;;
12721;SDS011;6425;50.316;8.114;2023-04-01T14:12:02;1.6;;;0.7;;
12721;SDS011;6425;50.316;8.114;2023-04-01T14:15:05;1;;;0.8;;
12721;SDS011;6425;50.316;8.114;2023-04-01T14:18:05;0.8;;;0.8;;
12721;SDS011;6425;50.316;8.114;2023-04-01T14:21:05;0.8;;;0.8;;
12721;SDS011;6425;50.316;8.114;2023-04-01T14:24:06;0.7;;;0.7;;
12721;SDS011;6425;50.316;8.114;2023-04-01T14:27:02;0.7;;;0.7;;
12721;SDS011;6425;50.316;8.114;2023-04-01T14:30:04;0.9;;;0.7;;
12721;SDS011;6425;50.316;8.114;2023-04-01T14:33:01;0.7;;;0.7;;
12721;SDS011;6425;50.316;8.114;2023-04-01T14:36:04;0.7;;;0.7;;
12721;SDS011;6425;50.316;8.114;2023-04-01T14:39:00;0.6;;;0.6;;
12721;SDS011;6425;50.316;8.114;2023-04-01T14:42:03;0.6;;;0.6;;
12721;SDS011;6425;50.316;8.114;2023-04-01T14:45:02;0.5;;;0.5;;
12721;SDS011;6425;50.316;8.114;2023-04-01T14:48:03;0.6;;;0.4;;
12721;SDS011;6425;50.316;8.114;2023-04-01T14:51:02;0.6;;;0.4;;
12721;SDS011;6425;50.316;8.114;2023-04-01T14:54:02;0.5;;;0.5;;
12721;SDS011;6425;50.316;8.114;2023-04-01T14:57:04;0.5;;;0.5;;
12721;SDS011;6425;50.316;8.114;2023-04-01T15:00:00;0.6;;;0.4;;
12721;SDS011;6425;50.316;8.114;2023-04-01T15:03:01;0.6;;;0.6;;
12721;SDS011;6425;50.316;8.114;2023-04-01T15:06:11;0.6;;;0.6;;
12721;SDS011;6425;50.316;8.114;2023-04-01T15:09:00;0.6;;;0.5;;
12721;SDS011;6425;50.316;8.114;2023-04-01T15:12:02;0.6;;;0.5;;
12721;SDS011;6425;50.316;8.114;2023-04-01T15:15:03;0.7;;;0.4;;
12721;SDS011;6425;50.316;8.114;2023-04-01T15:18:03;0.4;;;0.4;;
12721;SDS011;6425;50.316;8.114;2023-04-01T15:21:05;0.4;;;0.4;;
12721;SDS011;6425;50.316;8.114;2023-04-01T15:24:03;0.4;;;0.4;;
12721;SDS011;6425;50.316;8.114;2023-04-01T15:27:05;0.4;;;0.4;;
12721;SDS011;6425;50.316;8.114;2023-04-01T15:30:09;0.5;;;0.4;;
12721;SDS011;6425;50.316;8.114;2023-04-01T15:33:03;0.5;;;0.5;;
12721;SDS011;6425;50.316;8.114;2023-04-01T15:36:02;0.5;;;0.5;;
12721;SDS011;6425;50.316;8.114;2023-04-01T15:39:02;2.1;;;0.4;;
12721;SDS011;6425;50.316;8.114;2023-04-01T15:42:07;2.1;;;0.4;;
12721;SDS011;6425;50.316;8.114;2023-04-01T15:45:03;0.5;;;0.5;;
12721;SDS011;6425;50.316;8.114;2023-04-01T15:48:01;0.6;;;0.6;;
12721;SDS011;6425;50.316;8.114;2023-04-01T15:51:02;0.6;;;0.6;;
12721;SDS011;6425;50.316;8.114;2023-04-01T15:54:03;4.1;;;1.2;;
12721;SDS011;6425;50.316;8.114;2023-04-01T15:57:04;4.1;;;1.2;;
12721;SDS011;6425;50.316;8.114;2023-04-01T16:00:04;18.1;;;8.4;;
12721;SDS011;6425;50.316;8.114;2023-04-01T16:03:09;2.7;;;1.8;;
12721;SDS011;6425;50.316;8.114;2023-04-01T16:06:02;2.7;;;1.8;;
12721;SDS011;6425;50.316;8.114;2023-04-01T16:09:11;7.9;;;4;;
12721;SDS011;6425;50.316;8.114;2023-04-01T16:12:02;7.9;;;4;;
12721;SDS011;6425;50.316;8.114;2023-04-01T16:15:03;19.7;;;10.9;;
12721;SDS011;6425;50.316;8.114;2023-04-01T16:18:06;12.7;;;7.9;;
12721;SDS011;6425;50.316;8.114;2023-04-01T16:21:00;12.7;;;7.9;;
12721;SDS011;6425;50.316;8.114;2023-04-01T16:24:00;2.9;;;2.1;;
12721;SDS011;6425;50.316;8.114;2023-04-01T16:27:00;3;;;2.1;;
12721;SDS011;6425;50.316;8.114;2023-04-01T16:30:00;3.1;;;2.1;;
12721;SDS011;6425;50.316;8.114;2023-04-01T16:33:01;1.9;;;1.7;;
12721;SDS011;6425;50.316;8.114;2023-04-01T16:36:01;1.9;;;1.7;;
12721;SDS011;6425;50.316;8.114;2023-04-01T16:39:09;2.1;;;1.9;;
12721;SDS011;6425;50.316;8.114;2023-04-01T16:42:09;1.2;;;1.1;;
12721;SDS011;6425;50.316;8.114;2023-04-01T16:45:00;1.2;;;1.1;;
12721;SDS011;6425;50.316;8.114;2023-04-01T16:48:01;2.2;;;1.7;;
12721;SDS011;6425;50.316;8.114;2023-04-01T16:51:00;2.2;;;1.7;;
12721;SDS011;6425;50.316;8.114;2023-04-01T16:54:02;2.2;;;0.9;;
12721;SDS011;6425;50.316;8.114;2023-04-01T16:57:03;1.8;;;1.7;;
12721;SDS011;6425;50.316;8.114;2023-04-01T17:00:01;1.8;;;1.7;;
12721;SDS011;6425;50.316;8.114;2023-04-01T17:03:04;1.3;;;0.6;;
12721;SDS011;6425;50.316;8.114;2023-04-01T17:06:03;1.3;;;0.6;;
12721;SDS011;6425;50.316;8.114;2023-04-01T17:09:35;0.7;;;0.7;;
12721;SDS011;6425;50.316;8.114;2023-04-01T17:12:01;1.1;;;0.8;;
12721;SDS011;6425;50.316;8.114;2023-04-01T17:15:01;1.1;;;0.8;;
12721;SDS011;6425;50.316;8.114;2023-04-01T17:18:01;2.5;;;0.9;;
12721;SDS011;6425;50.316;8.114;2023-04-01T17:21:01;2.5;;;0.9;;
12721;SDS011;6425;50.316;8.114;2023-04-01T17:24:00;1.3;;;0.6;;
12721;SDS011;6425;50.316;8.114;2023-04-01T17:27:01;0.6;;;0.6;;
12721;SDS011;6425;50.316;8.114;2023-04-01T17:30:03;0.6;;;0.6;;
12721;SDS011;6425;50.316;8.114;2023-04-01T17:33:04;0.7;;;0.6;;
12721;SDS011;6425;50.316;8.114;2023-04-01T17:36:02;0.7;;;0.6;;
12721;SDS011;6425;50.316;8.114;2023-04-01T17:39:02;0.9;;;0.6;;
12721;SDS011;6425;50.316;8.114;2023-04-01T17:42:00;0.7;;;0.5;;
12721;SDS011;6425;50.316;8.114;2023-04-01T17:45:01;0.7;;;0.5;;
12721;SDS011;6425;50.316;8.114;2023-04-01T17:48:01;0.6;;;0.5;;
12721;SDS011;6425;50.316;8.114;2023-04-01T17:51:06;0.6;;;0.5;;
12721;SDS011;6425;50.316;8.114;2023-04-01T17:54:02;2.8;;;2.6;;
12721;SDS011;6425;50.316;8.114;2023-04-01T17:57:03;3;;;1.5;;
12721;SDS011;6425;50.316;8.114;2023-04-01T18:00:01;3;;;1.5;;
12721;SDS011;6425;50.316;8.114;2023-04-01T18:03:02;1.7;;;1.6;;
12721;SDS011;6425;50.316;8.114;2023-04-01T18:06:01;1.7;;;1.6;;
12721;SDS011;6425;50.316;8.114;2023-04-01T18:09:00;1.8;;;0.7;;
12721;SDS011;6425;50.316;8.114;2023-04-01T18:12:01;1.7;;;1.6;;
12721;SDS011;6425;50.316;8.114;2023-04-01T18:15:31;1.7;;;1.6;;
12721;SDS011;6425;50.316;8.114;2023-04-01T18:18:04;15.5;;;13.3;;
12721;SDS011;6425;50.316;8.114;2023-04-01T18:21:00;15.5;;;13.3;;
12721;SDS011;6425;50.316;8.114;2023-04-01T18:24:00;3.1;;;2.9;;
12721;SDS011;6425;50.316;8.114;2023-04-01T18:27:01;1.2;;;1;;
12721;SDS011;6425;50.316;8.114;2023-04-01T18:30:01;1.2;;;1;;
12721;SDS011;6425;50.316;8.114;2023-04-01T18:33:01;8.9;;;7.1;;
12721;SDS011;6425;50.316;8.114;2023-04-01T18:36:03;8.9;;;7.1;;
12721;SDS011;6425;50.316;8.114;2023-04-01T18:39:00;4.2;;;3.9;;
12721;SDS011;6425;50.316;8.114;2023-04-01T18:42:02;1.9;;;1.7;;
12721;SDS011;6425;50.316;8.114;2023-04-01T18:45:01;1.9;;;1.7;;
12721;SDS011;6425;50.316;8.114;2023-04-01T18:48:03;1.3;;;1.2;;
12721;SDS011;6425;50.316;8.114;2023-04-01T18:51:01;1.3;;;1.2;;
12721;SDS011;6425;50.316;8.114;2023-04-01T18:54:00;1.6;;;1.3;;
12721;SDS011;6425;50.316;8.114;2023-04-01T18:57:01;1.4;;;1.3;;
12721;SDS011;6425;50.316;8.114;2023-04-01T19:00:02;1.4;;;1.3;;
12721;SDS011;6425;50.316;8.114;2023-04-01T19:03:00;1.4;;;1.3;;
12721;SDS011;6425;50.316;8.114;2023-04-01T19:06:01;1.4;;;1.3;;
12721;SDS011;6425;50.316;8.114;2023-04-01T19:09:10;4.9;;;3.2;;
12721;SDS011;6425;50.316;8.114;2023-04-01T19:12:07;1.8;;;1.7;;
12721;SDS011;6425;50.316;8.114;2023-04-01T19:15:02;1.8;;;1.7;;